sensor_id;sensor_type;location;lat;lon;timestamp;P1;durP1;ratioP1;P2;durP2;ratioP2
428;SDS011;201;48.758;9.290;2022-08-19T00:01:27;16.10;;;15.13;;
428;SDS011;201;48.758;9.290;2022-08-19T00:03:54;18.20;;;15.10;;
428;SDS011;201;48.758;9.290;2022-08-19T00:06:21;15.73;;;14.53;;
428;SDS011;201;48.758;9.290;2022-08-19T00:08:46;15.93;;;15.13;;
428;SDS011;201;48.758;9.290;2022-08-19T00:11:12;15.27;;;13.93;;
428;SDS011;201;48.758;9.290;2022-08-19T00:13:37;18.90;;;16.60;;
428;SDS011;201;48.758;9.290;2022-08-19T00:16:04;17.80;;;15.47;;
428;SDS011;201;48.758;9.290;2022-08-19T00:18:30;15.83;;;14.90;;
428;SDS011;201;48.758;9.290;2022-08-19T00:20:56;16.53;;;14.90;;
428;SDS011;201;48.758;9.290;2022-08-19T00:23:22;18.57;;;16.23;;
428;SDS011;201;48.758;9.290;2022-08-19T00:25:48;17.37;;;16.47;;
428;SDS011;201;48.758;9.290;2022-08-19T00:28:13;17.10;;;16.20;;
428;SDS011;201;48.758;9.290;2022-08-19T00:30:39;16.23;;;15.07;;
428;SDS011;201;48.758;9.290;2022-08-19T00:33:05;16.60;;;15.03;;
428;SDS011;201;48.758;9.290;2022-08-19T00:35:32;17.40;;;15.73;;
428;SDS011;201;48.758;9.290;2022-08-19T00:37:58;19.20;;;16.53;;
428;SDS011;201;48.758;9.290;2022-08-19T00:40:24;16.83;;;15.63;;
428;SDS011;201;48.758;9.290;2022-08-19T00:42:50;18.90;;;17.77;;
428;SDS011;201;48.758;9.290;2022-08-19T00:45:19;19.10;;;15.60;;
428;SDS011;201;48.758;9.290;2022-08-19T00:47:46;19.73;;;16.43;;
428;SDS011;201;48.758;9.290;2022-08-19T00:50:13;17.07;;;15.87;;
428;SDS011;201;48.758;9.290;2022-08-19T00:52:42;17.63;;;15.73;;
428;SDS011;201;48.758;9.290;2022-08-19T00:55:18;17.80;;;14.30;;
428;SDS011;201;48.758;9.290;2022-08-19T00:57:48;16.43;;;15.63;;
428;SDS011;201;48.758;9.290;2022-08-19T01:00:21;18.50;;;15.80;;
428;SDS011;201;48.758;9.290;2022-08-19T01:02:48;17.53;;;14.90;;
428;SDS011;201;48.758;9.290;2022-08-19T01:05:16;17.47;;;15.07;;
428;SDS011;201;48.758;9.290;2022-08-19T01:07:44;16.63;;;15.60;;
428;SDS011;201;48.758;9.290;2022-08-19T01:10:12;16.27;;;14.90;;
428;SDS011;201;48.758;9.290;2022-08-19T01:12:43;17.00;;;15.23;;
428;SDS011;201;48.758;9.290;2022-08-19T01:15:11;15.00;;;13.93;;
428;SDS011;201;48.758;9.290;2022-08-19T01:17:40;19.17;;;16.10;;
428;SDS011;201;48.758;9.290;2022-08-19T01:20:09;16.73;;;15.90;;
428;SDS011;201;48.758;9.290;2022-08-19T01:22:45;16.50;;;15.67;;
428;SDS011;201;48.758;9.290;2022-08-19T01:25:17;17.40;;;15.23;;
428;SDS011;201;48.758;9.290;2022-08-19T01:27:45;16.93;;;15.83;;
428;SDS011;201;48.758;9.290;2022-08-19T01:30:14;17.90;;;15.23;;
428;SDS011;201;48.758;9.290;2022-08-19T01:32:41;15.50;;;14.70;;
428;SDS011;201;48.758;9.290;2022-08-19T01:35:08;17.57;;;15.73;;
428;SDS011;201;48.758;9.290;2022-08-19T01:37:45;17.70;;;15.90;;
428;SDS011;201;48.758;9.290;2022-08-19T01:40:22;17.33;;;15.10;;
428;SDS011;201;48.758;9.290;2022-08-19T01:42:51;16.80;;;15.97;;
428;SDS011;201;48.758;9.290;2022-08-19T01:45:18;16.37;;;14.97;;
428;SDS011;201;48.758;9.290;2022-08-19T01:47:45;18.40;;;15.60;;
428;SDS011;201;48.758;9.290;2022-08-19T01:50:12;15.50;;;14.70;;
428;SDS011;201;48.758;9.290;2022-08-19T01:52:38;21.10;;;15.83;;
428;SDS011;201;48.758;9.290;2022-08-19T01:55:06;19.00;;;16.20;;
428;SDS011;201;48.758;9.290;2022-08-19T01:57:34;17.60;;;15.20;;
428;SDS011;201;48.758;9.290;2022-08-19T02:00:00;20.43;;;16.30;;
428;SDS011;201;48.758;9.290;2022-08-19T02:02:27;19.47;;;16.03;;
428;SDS011;201;48.758;9.290;2022-08-19T02:04:53;17.50;;;15.20;;
428;SDS011;201;48.758;9.290;2022-08-19T02:07:19;21.33;;;16.80;;
428;SDS011;201;48.758;9.290;2022-08-19T02:09:46;21.80;;;17.90;;
428;SDS011;201;48.758;9.290;2022-08-19T02:12:13;19.93;;;16.10;;
428;SDS011;201;48.758;9.290;2022-08-19T02:14:39;19.53;;;17.40;;
428;SDS011;201;48.758;9.290;2022-08-19T02:17:05;20.00;;;16.23;;
428;SDS011;201;48.758;9.290;2022-08-19T02:19:31;18.40;;;16.13;;
428;SDS011;201;48.758;9.290;2022-08-19T02:21:59;18.70;;;16.80;;
428;SDS011;201;48.758;9.290;2022-08-19T02:24:26;18.90;;;16.73;;
428;SDS011;201;48.758;9.290;2022-08-19T02:26:52;22.70;;;17.63;;
428;SDS011;201;48.758;9.290;2022-08-19T02:29:18;22.37;;;18.50;;
428;SDS011;201;48.758;9.290;2022-08-19T02:31:44;20.97;;;17.40;;
428;SDS011;201;48.758;9.290;2022-08-19T02:34:09;20.13;;;17.20;;
428;SDS011;201;48.758;9.290;2022-08-19T02:36:35;18.97;;;17.27;;
428;SDS011;201;48.758;9.290;2022-08-19T02:39:00;20.90;;;17.60;;
428;SDS011;201;48.758;9.290;2022-08-19T02:41:27;23.73;;;18.30;;
428;SDS011;201;48.758;9.290;2022-08-19T02:43:56;24.37;;;19.50;;
428;SDS011;201;48.758;9.290;2022-08-19T02:46:27;20.87;;;18.67;;
428;SDS011;201;48.758;9.290;2022-08-19T02:48:58;22.63;;;18.30;;
428;SDS011;201;48.758;9.290;2022-08-19T02:51:28;23.83;;;20.37;;
428;SDS011;201;48.758;9.290;2022-08-19T02:53:56;23.30;;;19.50;;
428;SDS011;201;48.758;9.290;2022-08-19T02:56:22;24.20;;;18.87;;
428;SDS011;201;48.758;9.290;2022-08-19T02:58:49;25.00;;;19.70;;
428;SDS011;201;48.758;9.290;2022-08-19T03:01:28;23.23;;;19.40;;
428;SDS011;201;48.758;9.290;2022-08-19T03:03:57;32.57;;;21.43;;
428;SDS011;201;48.758;9.290;2022-08-19T03:06:24;24.07;;;20.40;;
428;SDS011;201;48.758;9.290;2022-08-19T03:08:50;28.07;;;20.17;;
428;SDS011;201;48.758;9.290;2022-08-19T03:11:17;25.97;;;21.27;;
428;SDS011;201;48.758;9.290;2022-08-19T03:13:48;25.20;;;20.90;;
428;SDS011;201;48.758;9.290;2022-08-19T03:16:16;24.40;;;20.93;;
428;SDS011;201;48.758;9.290;2022-08-19T03:18:45;27.63;;;21.80;;
428;SDS011;201;48.758;9.290;2022-08-19T03:21:15;27.83;;;21.43;;
428;SDS011;201;48.758;9.290;2022-08-19T03:23:45;26.03;;;20.67;;
428;SDS011;201;48.758;9.290;2022-08-19T03:26:11;26.80;;;22.33;;
428;SDS011;201;48.758;9.290;2022-08-19T03:28:39;28.93;;;21.67;;
428;SDS011;201;48.758;9.290;2022-08-19T03:31:06;26.23;;;22.73;;
428;SDS011;201;48.758;9.290;2022-08-19T03:33:36;26.50;;;21.10;;
428;SDS011;201;48.758;9.290;2022-08-19T03:36:03;27.13;;;21.80;;
428;SDS011;201;48.758;9.290;2022-08-19T03:38:30;28.63;;;22.97;;
428;SDS011;201;48.758;9.290;2022-08-19T03:40:57;26.70;;;22.13;;
428;SDS011;201;48.758;9.290;2022-08-19T03:43:22;31.47;;;22.53;;
428;SDS011;201;48.758;9.290;2022-08-19T03:45:48;29.63;;;23.70;;
428;SDS011;201;48.758;9.290;2022-08-19T03:48:14;29.37;;;24.00;;
428;SDS011;201;48.758;9.290;2022-08-19T03:50:42;30.20;;;24.60;;
428;SDS011;201;48.758;9.290;2022-08-19T03:53:07;28.10;;;23.47;;
428;SDS011;201;48.758;9.290;2022-08-19T03:55:33;29.57;;;22.50;;
428;SDS011;201;48.758;9.290;2022-08-19T03:58:03;26.80;;;22.90;;
428;SDS011;201;48.758;9.290;2022-08-19T04:00:29;32.10;;;24.73;;
428;SDS011;201;48.758;9.290;2022-08-19T04:02:54;31.50;;;23.40;;
428;SDS011;201;48.758;9.290;2022-08-19T04:05:20;26.73;;;23.30;;
428;SDS011;201;48.758;9.290;2022-08-19T04:07:45;27.80;;;22.80;;
428;SDS011;201;48.758;9.290;2022-08-19T04:10:11;27.43;;;24.57;;
428;SDS011;201;48.758;9.290;2022-08-19T04:12:36;26.63;;;22.90;;
428;SDS011;201;48.758;9.290;2022-08-19T04:15:02;31.20;;;23.00;;
428;SDS011;201;48.758;9.290;2022-08-19T04:17:28;30.10;;;24.63;;
428;SDS011;201;48.758;9.290;2022-08-19T04:19:54;27.80;;;22.10;;
428;SDS011;201;48.758;9.290;2022-08-19T04:22:19;30.00;;;23.70;;
428;SDS011;201;48.758;9.290;2022-08-19T04:24:45;30.03;;;23.57;;
428;SDS011;201;48.758;9.290;2022-08-19T04:27:10;28.13;;;24.30;;
428;SDS011;201;48.758;9.290;2022-08-19T04:29:36;33.37;;;24.13;;
428;SDS011;201;48.758;9.290;2022-08-19T04:32:04;29.00;;;24.77;;
428;SDS011;201;48.758;9.290;2022-08-19T04:34:30;28.10;;;23.83;;
428;SDS011;201;48.758;9.290;2022-08-19T04:36:57;27.40;;;24.07;;
428;SDS011;201;48.758;9.290;2022-08-19T04:39:25;31.20;;;25.70;;
428;SDS011;201;48.758;9.290;2022-08-19T04:42:13;28.47;;;24.80;;
428;SDS011;201;48.758;9.290;2022-08-19T04:44:58;36.97;;;26.60;;
428;SDS011;201;48.758;9.290;2022-08-19T04:47:24;29.30;;;24.30;;
428;SDS011;201;48.758;9.290;2022-08-19T04:49:50;30.90;;;26.20;;
428;SDS011;201;48.758;9.290;2022-08-19T04:52:15;32.07;;;27.37;;
428;SDS011;201;48.758;9.290;2022-08-19T04:54:41;30.20;;;25.07;;
428;SDS011;201;48.758;9.290;2022-08-19T04:57:07;33.60;;;25.87;;
428;SDS011;201;48.758;9.290;2022-08-19T04:59:34;32.37;;;25.10;;
428;SDS011;201;48.758;9.290;2022-08-19T05:02:02;31.73;;;25.13;;
428;SDS011;201;48.758;9.290;2022-08-19T05:04:28;28.30;;;24.30;;
428;SDS011;201;48.758;9.290;2022-08-19T05:06:56;33.17;;;27.07;;
428;SDS011;201;48.758;9.290;2022-08-19T05:09:22;32.20;;;26.97;;
428;SDS011;201;48.758;9.290;2022-08-19T05:11:47;30.10;;;25.73;;
428;SDS011;201;48.758;9.290;2022-08-19T05:14:15;32.03;;;26.07;;
428;SDS011;201;48.758;9.290;2022-08-19T05:16:41;31.00;;;25.53;;
428;SDS011;201;48.758;9.290;2022-08-19T05:19:07;29.63;;;25.93;;
428;SDS011;201;48.758;9.290;2022-08-19T05:21:51;29.70;;;24.73;;
428;SDS011;201;48.758;9.290;2022-08-19T05:24:35;29.07;;;25.90;;
428;SDS011;201;48.758;9.290;2022-08-19T05:27:01;33.30;;;26.37;;
428;SDS011;201;48.758;9.290;2022-08-19T05:29:27;32.43;;;26.00;;
428;SDS011;201;48.758;9.290;2022-08-19T05:31:56;30.50;;;25.07;;
428;SDS011;201;48.758;9.290;2022-08-19T05:34:22;31.00;;;26.20;;
428;SDS011;201;48.758;9.290;2022-08-19T05:36:53;34.43;;;26.10;;
428;SDS011;201;48.758;9.290;2022-08-19T05:39:22;28.60;;;25.30;;
428;SDS011;201;48.758;9.290;2022-08-19T05:41:51;25.97;;;22.20;;
428;SDS011;201;48.758;9.290;2022-08-19T05:44:22;32.60;;;25.30;;
428;SDS011;201;48.758;9.290;2022-08-19T05:46:52;29.20;;;24.73;;
428;SDS011;201;48.758;9.290;2022-08-19T05:49:19;31.23;;;26.47;;
428;SDS011;201;48.758;9.290;2022-08-19T05:51:47;30.47;;;26.87;;
428;SDS011;201;48.758;9.290;2022-08-19T05:54:12;27.70;;;23.63;;
428;SDS011;201;48.758;9.290;2022-08-19T05:56:39;31.50;;;26.37;;
428;SDS011;201;48.758;9.290;2022-08-19T05:59:06;28.93;;;24.10;;
428;SDS011;201;48.758;9.290;2022-08-19T06:01:34;32.90;;;27.37;;
428;SDS011;201;48.758;9.290;2022-08-19T06:04:00;30.50;;;27.03;;
428;SDS011;201;48.758;9.290;2022-08-19T06:06:26;38.57;;;28.27;;
428;SDS011;201;48.758;9.290;2022-08-19T06:08:51;32.73;;;26.50;;
428;SDS011;201;48.758;9.290;2022-08-19T06:13:48;34.77;;;28.90;;
428;SDS011;201;48.758;9.290;2022-08-19T06:16:18;35.40;;;29.67;;
428;SDS011;201;48.758;9.290;2022-08-19T06:18:45;34.63;;;27.23;;
428;SDS011;201;48.758;9.290;2022-08-19T06:21:11;35.43;;;28.87;;
428;SDS011;201;48.758;9.290;2022-08-19T06:23:37;34.70;;;28.90;;
428;SDS011;201;48.758;9.290;2022-08-19T06:26:03;39.67;;;30.30;;
428;SDS011;201;48.758;9.290;2022-08-19T06:28:29;33.77;;;27.60;;
428;SDS011;201;48.758;9.290;2022-08-19T06:30:54;37.40;;;28.57;;
428;SDS011;201;48.758;9.290;2022-08-19T06:33:20;37.67;;;29.20;;
428;SDS011;201;48.758;9.290;2022-08-19T06:35:45;37.03;;;29.93;;
428;SDS011;201;48.758;9.290;2022-08-19T06:38:11;35.60;;;27.77;;
428;SDS011;201;48.758;9.290;2022-08-19T06:40:36;31.93;;;26.63;;
428;SDS011;201;48.758;9.290;2022-08-19T06:43:03;36.90;;;28.27;;
428;SDS011;201;48.758;9.290;2022-08-19T06:45:28;38.47;;;28.27;;
428;SDS011;201;48.758;9.290;2022-08-19T06:47:55;36.83;;;28.37;;
428;SDS011;201;48.758;9.290;2022-08-19T06:50:21;35.50;;;28.00;;
428;SDS011;201;48.758;9.290;2022-08-19T06:52:47;35.30;;;28.30;;
428;SDS011;201;48.758;9.290;2022-08-19T06:55:13;32.87;;;27.83;;
428;SDS011;201;48.758;9.290;2022-08-19T06:57:40;35.97;;;27.47;;
428;SDS011;201;48.758;9.290;2022-08-19T07:00:07;33.13;;;27.10;;
428;SDS011;201;48.758;9.290;2022-08-19T07:02:39;34.40;;;27.03;;
428;SDS011;201;48.758;9.290;2022-08-19T07:05:05;33.90;;;25.23;;
428;SDS011;201;48.758;9.290;2022-08-19T07:07:31;32.43;;;25.77;;
428;SDS011;201;48.758;9.290;2022-08-19T07:09:57;33.53;;;27.43;;
428;SDS011;201;48.758;9.290;2022-08-19T07:12:23;32.30;;;26.50;;
428;SDS011;201;48.758;9.290;2022-08-19T07:14:48;42.97;;;28.67;;
428;SDS011;201;48.758;9.290;2022-08-19T07:17:14;34.90;;;28.00;;
428;SDS011;201;48.758;9.290;2022-08-19T07:19:40;42.03;;;30.57;;
428;SDS011;201;48.758;9.290;2022-08-19T07:22:07;35.13;;;31.07;;
428;SDS011;201;48.758;9.290;2022-08-19T07:24:35;37.20;;;29.43;;
428;SDS011;201;48.758;9.290;2022-08-19T07:27:02;38.23;;;30.20;;
428;SDS011;201;48.758;9.290;2022-08-19T07:29:30;42.23;;;31.23;;
428;SDS011;201;48.758;9.290;2022-08-19T07:31:58;39.90;;;33.23;;
428;SDS011;201;48.758;9.290;2022-08-19T07:34:25;40.07;;;32.27;;
428;SDS011;201;48.758;9.290;2022-08-19T07:36:52;43.90;;;31.43;;
428;SDS011;201;48.758;9.290;2022-08-19T07:39:27;44.07;;;31.10;;
428;SDS011;201;48.758;9.290;2022-08-19T07:41:55;41.70;;;32.90;;
428;SDS011;201;48.758;9.290;2022-08-19T07:44:22;39.50;;;32.10;;
428;SDS011;201;48.758;9.290;2022-08-19T07:46:49;43.90;;;32.80;;
428;SDS011;201;48.758;9.290;2022-08-19T07:49:18;38.63;;;31.00;;
428;SDS011;201;48.758;9.290;2022-08-19T07:51:52;43.33;;;32.70;;
428;SDS011;201;48.758;9.290;2022-08-19T07:54:20;38.67;;;30.73;;
428;SDS011;201;48.758;9.290;2022-08-19T07:56:48;44.03;;;31.87;;
428;SDS011;201;48.758;9.290;2022-08-19T07:59:14;44.83;;;32.47;;
428;SDS011;201;48.758;9.290;2022-08-19T08:01:42;36.93;;;30.60;;
428;SDS011;201;48.758;9.290;2022-08-19T08:04:08;41.93;;;32.53;;
428;SDS011;201;48.758;9.290;2022-08-19T08:06:52;41.30;;;31.83;;
428;SDS011;201;48.758;9.290;2022-08-19T08:09:38;40.90;;;31.43;;
428;SDS011;201;48.758;9.290;2022-08-19T08:12:07;39.80;;;29.70;;
428;SDS011;201;48.758;9.290;2022-08-19T08:14:39;40.40;;;30.67;;
428;SDS011;201;48.758;9.290;2022-08-19T08:17:09;42.03;;;33.20;;
428;SDS011;201;48.758;9.290;2022-08-19T08:19:35;41.83;;;32.03;;
428;SDS011;201;48.758;9.290;2022-08-19T08:22:02;40.10;;;32.07;;
428;SDS011;201;48.758;9.290;2022-08-19T08:24:31;43.13;;;33.60;;
428;SDS011;201;48.758;9.290;2022-08-19T08:26:57;45.40;;;33.13;;
428;SDS011;201;48.758;9.290;2022-08-19T08:29:27;39.87;;;31.37;;
428;SDS011;201;48.758;9.290;2022-08-19T08:31:54;39.50;;;30.83;;
428;SDS011;201;48.758;9.290;2022-08-19T08:34:20;45.20;;;32.77;;
428;SDS011;201;48.758;9.290;2022-08-19T08:36:46;39.70;;;31.43;;
428;SDS011;201;48.758;9.290;2022-08-19T08:39:16;43.27;;;32.90;;
428;SDS011;201;48.758;9.290;2022-08-19T08:44:48;44.13;;;32.70;;
428;SDS011;201;48.758;9.290;2022-08-19T08:47:18;43.03;;;30.43;;
428;SDS011;201;48.758;9.290;2022-08-19T08:50:02;38.90;;;30.50;;
428;SDS011;201;48.758;9.290;2022-08-19T08:52:33;38.67;;;31.10;;
428;SDS011;201;48.758;9.290;2022-08-19T08:55:09;39.07;;;30.70;;
428;SDS011;201;48.758;9.290;2022-08-19T09:00:15;39.50;;;31.77;;
428;SDS011;201;48.758;9.290;2022-08-19T09:03:02;37.67;;;30.50;;
428;SDS011;201;48.758;9.290;2022-08-19T09:05:37;38.93;;;28.23;;
428;SDS011;201;48.758;9.290;2022-08-19T09:08:13;34.27;;;28.07;;
428;SDS011;201;48.758;9.290;2022-08-19T09:11:06;38.53;;;30.20;;
428;SDS011;201;48.758;9.290;2022-08-19T09:13:38;37.77;;;29.23;;
428;SDS011;201;48.758;9.290;2022-08-19T09:16:19;35.00;;;27.17;;
428;SDS011;201;48.758;9.290;2022-08-19T09:18:52;34.60;;;28.43;;
428;SDS011;201;48.758;9.290;2022-08-19T09:21:20;34.20;;;27.70;;
428;SDS011;201;48.758;9.290;2022-08-19T09:23:50;35.50;;;28.00;;
428;SDS011;201;48.758;9.290;2022-08-19T09:26:17;31.87;;;25.33;;
428;SDS011;201;48.758;9.290;2022-08-19T09:28:45;36.50;;;27.90;;
428;SDS011;201;48.758;9.290;2022-08-19T09:31:13;33.37;;;28.00;;
428;SDS011;201;48.758;9.290;2022-08-19T09:33:41;30.47;;;27.63;;
428;SDS011;201;48.758;9.290;2022-08-19T09:36:10;32.70;;;26.70;;
428;SDS011;201;48.758;9.290;2022-08-19T09:38:37;59.37;;;32.53;;
428;SDS011;201;48.758;9.290;2022-08-19T09:41:06;37.07;;;28.90;;
428;SDS011;201;48.758;9.290;2022-08-19T09:43:33;35.43;;;29.00;;
428;SDS011;201;48.758;9.290;2022-08-19T09:46:01;34.40;;;27.37;;
428;SDS011;201;48.758;9.290;2022-08-19T09:48:30;30.50;;;26.03;;
428;SDS011;201;48.758;9.290;2022-08-19T09:51:02;33.17;;;24.87;;
428;SDS011;201;48.758;9.290;2022-08-19T09:53:28;35.77;;;26.03;;
428;SDS011;201;48.758;9.290;2022-08-19T09:55:55;30.37;;;26.00;;
428;SDS011;201;48.758;9.290;2022-08-19T09:58:20;30.70;;;25.23;;
428;SDS011;201;48.758;9.290;2022-08-19T10:00:47;34.70;;;26.00;;
428;SDS011;201;48.758;9.290;2022-08-19T10:03:13;31.73;;;24.97;;
428;SDS011;201;48.758;9.290;2022-08-19T10:05:38;31.57;;;26.40;;
428;SDS011;201;48.758;9.290;2022-08-19T10:08:13;30.60;;;26.57;;
428;SDS011;201;48.758;9.290;2022-08-19T10:10:40;36.63;;;27.33;;
428;SDS011;201;48.758;9.290;2022-08-19T10:13:10;35.50;;;28.10;;
428;SDS011;201;48.758;9.290;2022-08-19T10:15:36;34.83;;;26.83;;
428;SDS011;201;48.758;9.290;2022-08-19T10:18:04;34.70;;;26.47;;
428;SDS011;201;48.758;9.290;2022-08-19T10:20:30;37.87;;;27.50;;
428;SDS011;201;48.758;9.290;2022-08-19T10:22:56;34.60;;;27.77;;
428;SDS011;201;48.758;9.290;2022-08-19T10:25:24;33.27;;;26.93;;
428;SDS011;201;48.758;9.290;2022-08-19T10:27:51;34.90;;;29.50;;
428;SDS011;201;48.758;9.290;2022-08-19T10:30:16;35.53;;;29.90;;
428;SDS011;201;48.758;9.290;2022-08-19T10:32:42;32.87;;;27.10;;
428;SDS011;201;48.758;9.290;2022-08-19T10:35:09;38.37;;;28.43;;
428;SDS011;201;48.758;9.290;2022-08-19T10:37:35;33.50;;;29.07;;
428;SDS011;201;48.758;9.290;2022-08-19T10:40:02;35.50;;;29.97;;
428;SDS011;201;48.758;9.290;2022-08-19T10:42:31;35.33;;;28.27;;
428;SDS011;201;48.758;9.290;2022-08-19T10:44:56;32.10;;;27.60;;
428;SDS011;201;48.758;9.290;2022-08-19T10:47:22;45.97;;;33.80;;
428;SDS011;201;48.758;9.290;2022-08-19T10:49:51;33.83;;;27.60;;
428;SDS011;201;48.758;9.290;2022-08-19T10:52:36;38.63;;;28.30;;
428;SDS011;201;48.758;9.290;2022-08-19T10:55:05;31.70;;;27.90;;
428;SDS011;201;48.758;9.290;2022-08-19T10:57:50;39.23;;;29.40;;
428;SDS011;201;48.758;9.290;2022-08-19T11:00:17;34.93;;;29.20;;
428;SDS011;201;48.758;9.290;2022-08-19T11:02:43;34.03;;;28.83;;
428;SDS011;201;48.758;9.290;2022-08-19T11:05:09;35.63;;;27.80;;
428;SDS011;201;48.758;9.290;2022-08-19T11:07:36;36.23;;;31.77;;
428;SDS011;201;48.758;9.290;2022-08-19T11:10:06;36.87;;;30.37;;
428;SDS011;201;48.758;9.290;2022-08-19T11:12:33;40.30;;;33.37;;
428;SDS011;201;48.758;9.290;2022-08-19T11:14:59;45.87;;;35.60;;
428;SDS011;201;48.758;9.290;2022-08-19T11:17:24;46.00;;;35.63;;
428;SDS011;201;48.758;9.290;2022-08-19T11:19:50;49.43;;;34.97;;
428;SDS011;201;48.758;9.290;2022-08-19T11:22:15;48.10;;;37.47;;
428;SDS011;201;48.758;9.290;2022-08-19T11:24:41;46.77;;;34.40;;
428;SDS011;201;48.758;9.290;2022-08-19T11:27:07;50.43;;;37.03;;
428;SDS011;201;48.758;9.290;2022-08-19T11:29:34;54.30;;;38.20;;
428;SDS011;201;48.758;9.290;2022-08-19T11:32:06;50.40;;;36.70;;
428;SDS011;201;48.758;9.290;2022-08-19T11:34:34;53.10;;;40.60;;
428;SDS011;201;48.758;9.290;2022-08-19T11:37:00;51.73;;;37.77;;
428;SDS011;201;48.758;9.290;2022-08-19T11:39:27;50.87;;;37.20;;
428;SDS011;201;48.758;9.290;2022-08-19T11:41:55;54.97;;;40.97;;
428;SDS011;201;48.758;9.290;2022-08-19T11:44:20;51.63;;;40.10;;
428;SDS011;201;48.758;9.290;2022-08-19T11:46:46;51.83;;;39.67;;
428;SDS011;201;48.758;9.290;2022-08-19T11:49:13;53.90;;;39.50;;
428;SDS011;201;48.758;9.290;2022-08-19T11:51:40;54.70;;;40.17;;
428;SDS011;201;48.758;9.290;2022-08-19T11:54:08;55.03;;;39.77;;
428;SDS011;201;48.758;9.290;2022-08-19T11:56:34;55.70;;;38.77;;
428;SDS011;201;48.758;9.290;2022-08-19T11:59:01;55.17;;;37.20;;
428;SDS011;201;48.758;9.290;2022-08-19T12:01:27;52.30;;;38.97;;
428;SDS011;201;48.758;9.290;2022-08-19T12:03:53;57.20;;;40.00;;
428;SDS011;201;48.758;9.290;2022-08-19T12:06:24;56.70;;;38.20;;
428;SDS011;201;48.758;9.290;2022-08-19T12:08:53;52.83;;;37.87;;
428;SDS011;201;48.758;9.290;2022-08-19T12:11:19;50.83;;;39.53;;
428;SDS011;201;48.758;9.290;2022-08-19T12:13:45;52.53;;;41.20;;
428;SDS011;201;48.758;9.290;2022-08-19T12:16:16;59.53;;;40.13;;
428;SDS011;201;48.758;9.290;2022-08-19T12:18:44;56.30;;;41.43;;
428;SDS011;201;48.758;9.290;2022-08-19T12:21:13;63.60;;;44.43;;
428;SDS011;201;48.758;9.290;2022-08-19T12:23:41;59.07;;;42.97;;
428;SDS011;201;48.758;9.290;2022-08-19T12:26:08;56.93;;;39.23;;
428;SDS011;201;48.758;9.290;2022-08-19T12:28:35;58.00;;;42.63;;
428;SDS011;201;48.758;9.290;2022-08-19T12:31:00;65.93;;;45.00;;
428;SDS011;201;48.758;9.290;2022-08-19T12:33:26;64.70;;;43.13;;
428;SDS011;201;48.758;9.290;2022-08-19T12:35:53;66.53;;;46.07;;
428;SDS011;201;48.758;9.290;2022-08-19T12:38:19;62.33;;;42.20;;
428;SDS011;201;48.758;9.290;2022-08-19T12:40:48;66.03;;;45.33;;
428;SDS011;201;48.758;9.290;2022-08-19T12:43:14;59.47;;;42.47;;
428;SDS011;201;48.758;9.290;2022-08-19T12:45:45;61.53;;;43.40;;
428;SDS011;201;48.758;9.290;2022-08-19T12:48:11;70.20;;;44.27;;
428;SDS011;201;48.758;9.290;2022-08-19T12:50:39;66.10;;;44.73;;
428;SDS011;201;48.758;9.290;2022-08-19T12:53:05;61.17;;;42.57;;
428;SDS011;201;48.758;9.290;2022-08-19T12:55:31;64.93;;;45.70;;
428;SDS011;201;48.758;9.290;2022-08-19T12:57:56;58.67;;;43.13;;
428;SDS011;201;48.758;9.290;2022-08-19T13:00:22;61.67;;;42.63;;
428;SDS011;201;48.758;9.290;2022-08-19T13:02:50;61.40;;;42.40;;
428;SDS011;201;48.758;9.290;2022-08-19T13:05:18;65.80;;;44.80;;
428;SDS011;201;48.758;9.290;2022-08-19T13:07:49;60.50;;;43.33;;
428;SDS011;201;48.758;9.290;2022-08-19T13:10:17;62.63;;;42.53;;
428;SDS011;201;48.758;9.290;2022-08-19T13:12:45;65.87;;;43.07;;
428;SDS011;201;48.758;9.290;2022-08-19T13:15:14;66.77;;;43.97;;
428;SDS011;201;48.758;9.290;2022-08-19T13:17:44;72.07;;;45.83;;
428;SDS011;201;48.758;9.290;2022-08-19T13:20:12;67.00;;;44.00;;
428;SDS011;201;48.758;9.290;2022-08-19T13:22:37;68.43;;;45.17;;
428;SDS011;201;48.758;9.290;2022-08-19T13:25:04;68.37;;;46.20;;
428;SDS011;201;48.758;9.290;2022-08-19T13:27:30;66.90;;;45.70;;
428;SDS011;201;48.758;9.290;2022-08-19T13:29:56;68.97;;;45.53;;
428;SDS011;201;48.758;9.290;2022-08-19T13:32:40;74.23;;;47.50;;
428;SDS011;201;48.758;9.290;2022-08-19T13:35:24;74.33;;;46.47;;
428;SDS011;201;48.758;9.290;2022-08-19T13:37:50;80.07;;;50.40;;
428;SDS011;201;48.758;9.290;2022-08-19T13:40:17;78.03;;;47.17;;
428;SDS011;201;48.758;9.290;2022-08-19T13:42:45;85.90;;;48.67;;
428;SDS011;201;48.758;9.290;2022-08-19T13:45:12;80.63;;;48.77;;
428;SDS011;201;48.758;9.290;2022-08-19T13:47:39;92.67;;;51.93;;
428;SDS011;201;48.758;9.290;2022-08-19T13:50:13;85.07;;;50.27;;
428;SDS011;201;48.758;9.290;2022-08-19T13:52:42;86.37;;;48.73;;
428;SDS011;201;48.758;9.290;2022-08-19T13:55:08;83.83;;;49.43;;
428;SDS011;201;48.758;9.290;2022-08-19T13:57:35;93.30;;;50.90;;
428;SDS011;201;48.758;9.290;2022-08-19T14:00:03;83.77;;;50.53;;
428;SDS011;201;48.758;9.290;2022-08-19T14:02:35;88.40;;;52.70;;
428;SDS011;201;48.758;9.290;2022-08-19T14:05:02;94.00;;;53.17;;
428;SDS011;201;48.758;9.290;2022-08-19T14:07:28;96.13;;;50.00;;
428;SDS011;201;48.758;9.290;2022-08-19T14:09:54;87.30;;;50.37;;
428;SDS011;201;48.758;9.290;2022-08-19T14:12:20;81.33;;;48.00;;
428;SDS011;201;48.758;9.290;2022-08-19T14:14:46;83.67;;;51.70;;
428;SDS011;201;48.758;9.290;2022-08-19T14:17:11;83.37;;;49.63;;
428;SDS011;201;48.758;9.290;2022-08-19T14:19:37;79.67;;;48.97;;
428;SDS011;201;48.758;9.290;2022-08-19T14:22:03;72.17;;;43.90;;
428;SDS011;201;48.758;9.290;2022-08-19T14:24:29;81.20;;;47.83;;
428;SDS011;201;48.758;9.290;2022-08-19T14:26:54;68.93;;;44.80;;
428;SDS011;201;48.758;9.290;2022-08-19T14:29:22;66.67;;;46.37;;
428;SDS011;201;48.758;9.290;2022-08-19T14:31:47;66.00;;;45.53;;
428;SDS011;201;48.758;9.290;2022-08-19T14:34:13;62.83;;;44.23;;
428;SDS011;201;48.758;9.290;2022-08-19T14:36:38;58.30;;;42.40;;
428;SDS011;201;48.758;9.290;2022-08-19T14:39:04;57.97;;;41.00;;
428;SDS011;201;48.758;9.290;2022-08-19T14:41:29;62.90;;;40.70;;
428;SDS011;201;48.758;9.290;2022-08-19T14:43:55;53.27;;;40.13;;
428;SDS011;201;48.758;9.290;2022-08-19T14:46:22;55.10;;;40.20;;
428;SDS011;201;48.758;9.290;2022-08-19T14:48:50;52.73;;;40.83;;
428;SDS011;201;48.758;9.290;2022-08-19T14:51:16;45.53;;;35.13;;
428;SDS011;201;48.758;9.290;2022-08-19T14:53:44;48.33;;;37.67;;
428;SDS011;201;48.758;9.290;2022-08-19T14:56:13;53.77;;;39.40;;
428;SDS011;201;48.758;9.290;2022-08-19T14:58:41;47.40;;;37.37;;
428;SDS011;201;48.758;9.290;2022-08-19T15:01:07;43.90;;;35.00;;
428;SDS011;201;48.758;9.290;2022-08-19T15:03:34;42.03;;;35.53;;
428;SDS011;201;48.758;9.290;2022-08-19T15:06:00;42.30;;;36.00;;
428;SDS011;201;48.758;9.290;2022-08-19T15:08:28;43.10;;;35.63;;
428;SDS011;201;48.758;9.290;2022-08-19T15:10:55;45.43;;;36.10;;
428;SDS011;201;48.758;9.290;2022-08-19T15:13:21;44.47;;;35.77;;
428;SDS011;201;48.758;9.290;2022-08-19T15:15:49;49.47;;;39.60;;
428;SDS011;201;48.758;9.290;2022-08-19T15:18:16;52.73;;;38.80;;
428;SDS011;201;48.758;9.290;2022-08-19T15:20:45;49.23;;;38.50;;
428;SDS011;201;48.758;9.290;2022-08-19T15:23:11;46.73;;;37.07;;
428;SDS011;201;48.758;9.290;2022-08-19T15:25:40;46.87;;;38.27;;
428;SDS011;201;48.758;9.290;2022-08-19T15:28:06;51.30;;;38.73;;